Terminal Aerodrome Forecast
Issued by NWS Paducah, KY

Home | Current Version | Previous Version | Text Only | Print | Product List | Glossary On
Versions: 1 2 3 4 5 6 7 8 9 10 11 12 13 14 15 16 17 18
477
FTUS43 KPAH 211139
TAFPAH
TAF
KPAH 211139Z 2112/2212 13003KT P6SM VCSH SCT060 OVC150
      TEMPO 2113/2115 6SM -SHRA BKN060
     FM211500 13005KT P6SM VCSH SCT025 OVC050
     FM212300 VRB03KT P6SM OVC020
     FM220400 00000KT 4SM BR OVC010
      TEMPO 2208/2212 2SM BR OVC008=

USA.gov is the U.S. government's official web portal to all federal, state and local government web resources and services.